sensor_id;sensor_type;location;lat;lon;timestamp;P1;durP1;ratioP1;P2;durP2;ratioP2
22040;SDS011;11184;52.444;13.578;2023-07-08T00:02:12;6.35;;;5.75;;
22040;SDS011;11184;52.444;13.578;2023-07-08T00:04:57;6.18;;;5.68;;
22040;SDS011;11184;52.444;13.578;2023-07-08T00:07:42;6.57;;;5.60;;
22040;SDS011;11184;52.444;13.578;2023-07-08T00:10:27;6.65;;;6.05;;
22040;SDS011;11184;52.444;13.578;2023-07-08T00:13:12;6.72;;;5.97;;
22040;SDS011;11184;52.444;13.578;2023-07-08T00:15:57;6.05;;;5.50;;
22040;SDS011;11184;52.444;13.578;2023-07-08T00:18:41;6.50;;;6.00;;
22040;SDS011;11184;52.444;13.578;2023-07-08T00:21:27;8.15;;;5.72;;
22040;SDS011;11184;52.444;13.578;2023-07-08T00:24:12;7.18;;;5.65;;
22040;SDS011;11184;52.444;13.578;2023-07-08T00:26:57;7.32;;;5.95;;
22040;SDS011;11184;52.444;13.578;2023-07-08T00:29:42;7.57;;;6.68;;
22040;SDS011;11184;52.444;13.578;2023-07-08T00:32:27;8.30;;;6.28;;
22040;SDS011;11184;52.444;13.578;2023-07-08T00:35:11;9.60;;;5.40;;
22040;SDS011;11184;52.444;13.578;2023-07-08T00:37:56;6.20;;;5.70;;
22040;SDS011;11184;52.444;13.578;2023-07-08T00:40:52;6.10;;;5.55;;
22040;SDS011;11184;52.444;13.578;2023-07-08T00:49:21;5.93;;;5.43;;
22040;SDS011;11184;52.444;13.578;2023-07-08T00:52:15;12.05;;;6.05;;
22040;SDS011;11184;52.444;13.578;2023-07-08T00:55:01;5.85;;;5.35;;
22040;SDS011;11184;52.444;13.578;2023-07-08T00:57:48;5.65;;;5.15;;
22040;SDS011;11184;52.444;13.578;2023-07-08T01:00:33;7.82;;;5.63;;
22040;SDS011;11184;52.444;13.578;2023-07-08T01:03:17;6.47;;;5.65;;
22040;SDS011;11184;52.444;13.578;2023-07-08T01:06:02;5.32;;;4.93;;
22040;SDS011;11184;52.444;13.578;2023-07-08T01:08:48;5.53;;;4.60;;
22040;SDS011;11184;52.444;13.578;2023-07-08T01:11:36;13.25;;;5.07;;
22040;SDS011;11184;52.444;13.578;2023-07-08T01:14:22;7.55;;;5.13;;
22040;SDS011;11184;52.444;13.578;2023-07-08T01:17:08;5.85;;;5.30;;
22040;SDS011;11184;52.444;13.578;2023-07-08T01:19:57;5.55;;;5.03;;
22040;SDS011;11184;52.444;13.578;2023-07-08T01:22:41;5.60;;;5.18;;
22040;SDS011;11184;52.444;13.578;2023-07-08T01:25:26;6.53;;;5.93;;
22040;SDS011;11184;52.444;13.578;2023-07-08T01:28:11;5.85;;;5.20;;
22040;SDS011;11184;52.444;13.578;2023-07-08T01:30:56;5.63;;;5.05;;
22040;SDS011;11184;52.444;13.578;2023-07-08T01:33:41;5.75;;;5.25;;
22040;SDS011;11184;52.444;13.578;2023-07-08T01:36:26;6.15;;;5.55;;
22040;SDS011;11184;52.444;13.578;2023-07-08T01:39:16;6.05;;;5.00;;
22040;SDS011;11184;52.444;13.578;2023-07-08T01:42:01;6.10;;;4.80;;
22040;SDS011;11184;52.444;13.578;2023-07-08T01:44:46;5.47;;;4.95;;
22040;SDS011;11184;52.444;13.578;2023-07-08T01:47:30;6.72;;;5.32;;
22040;SDS011;11184;52.444;13.578;2023-07-08T01:50:15;5.35;;;4.93;;
22040;SDS011;11184;52.444;13.578;2023-07-08T01:53:00;5.53;;;5.05;;
22040;SDS011;11184;52.444;13.578;2023-07-08T01:55:47;6.45;;;5.93;;
22040;SDS011;11184;52.444;13.578;2023-07-08T01:58:31;6.25;;;5.75;;
22040;SDS011;11184;52.444;13.578;2023-07-08T02:01:16;6.53;;;5.75;;
22040;SDS011;11184;52.444;13.578;2023-07-08T02:04:01;6.93;;;6.28;;
22040;SDS011;11184;52.444;13.578;2023-07-08T02:06:50;6.22;;;5.50;;
22040;SDS011;11184;52.444;13.578;2023-07-08T02:09:35;5.68;;;5.18;;
22040;SDS011;11184;52.444;13.578;2023-07-08T02:12:19;5.45;;;5.05;;
22040;SDS011;11184;52.444;13.578;2023-07-08T02:15:04;5.72;;;4.95;;
22040;SDS011;11184;52.444;13.578;2023-07-08T02:17:49;6.35;;;5.75;;
22040;SDS011;11184;52.444;13.578;2023-07-08T02:20:34;5.63;;;5.13;;
22040;SDS011;11184;52.444;13.578;2023-07-08T02:23:18;5.35;;;4.93;;
22040;SDS011;11184;52.444;13.578;2023-07-08T02:26:03;6.90;;;5.88;;
22040;SDS011;11184;52.444;13.578;2023-07-08T02:28:48;6.28;;;5.78;;
22040;SDS011;11184;52.444;13.578;2023-07-08T02:31:32;6.15;;;5.60;;
22040;SDS011;11184;52.444;13.578;2023-07-08T02:34:17;6.60;;;6.03;;
22040;SDS011;11184;52.444;13.578;2023-07-08T02:37:02;6.53;;;5.93;;
22040;SDS011;11184;52.444;13.578;2023-07-08T02:39:47;5.85;;;5.35;;
22040;SDS011;11184;52.444;13.578;2023-07-08T02:42:31;11.68;;;6.43;;
22040;SDS011;11184;52.444;13.578;2023-07-08T02:45:17;6.93;;;6.15;;
22040;SDS011;11184;52.444;13.578;2023-07-08T02:48:02;6.60;;;5.10;;
22040;SDS011;11184;52.444;13.578;2023-07-08T02:50:46;4.90;;;4.50;;
22040;SDS011;11184;52.444;13.578;2023-07-08T02:53:31;6.22;;;5.72;;
22040;SDS011;11184;52.444;13.578;2023-07-08T02:56:15;12.57;;;5.05;;
22040;SDS011;11184;52.444;13.578;2023-07-08T02:59:00;8.73;;;6.40;;
22040;SDS011;11184;52.444;13.578;2023-07-08T03:01:44;10.13;;;6.28;;
22040;SDS011;11184;52.444;13.578;2023-07-08T03:04:30;5.32;;;4.72;;
22040;SDS011;11184;52.444;13.578;2023-07-08T03:07:15;7.05;;;6.13;;
22040;SDS011;11184;52.444;13.578;2023-07-08T03:10:00;6.90;;;5.88;;
22040;SDS011;11184;52.444;13.578;2023-07-08T03:12:44;6.85;;;6.18;;
22040;SDS011;11184;52.444;13.578;2023-07-08T03:15:29;9.02;;;5.22;;
22040;SDS011;11184;52.444;13.578;2023-07-08T03:18:14;7.20;;;6.50;;
22040;SDS011;11184;52.444;13.578;2023-07-08T03:20:59;6.40;;;5.82;;
22040;SDS011;11184;52.444;13.578;2023-07-08T03:23:44;6.32;;;5.75;;
22040;SDS011;11184;52.444;13.578;2023-07-08T03:26:29;5.70;;;5.30;;
22040;SDS011;11184;52.444;13.578;2023-07-08T03:29:18;7.78;;;5.60;;
22040;SDS011;11184;52.444;13.578;2023-07-08T03:32:03;6.80;;;6.20;;
22040;SDS011;11184;52.444;13.578;2023-07-08T03:34:48;5.75;;;5.25;;
22040;SDS011;11184;52.444;13.578;2023-07-08T03:37:33;5.60;;;5.15;;
22040;SDS011;11184;52.444;13.578;2023-07-08T03:40:17;6.05;;;5.50;;
22040;SDS011;11184;52.444;13.578;2023-07-08T03:43:02;7.10;;;6.10;;
22040;SDS011;11184;52.444;13.578;2023-07-08T03:45:46;6.25;;;5.75;;
22040;SDS011;11184;52.444;13.578;2023-07-08T03:48:31;6.03;;;5.53;;
22040;SDS011;11184;52.444;13.578;2023-07-08T03:51:23;7.97;;;5.53;;
22040;SDS011;11184;52.444;13.578;2023-07-08T03:54:09;6.03;;;5.40;;
22040;SDS011;11184;52.444;13.578;2023-07-08T03:56:55;5.30;;;4.90;;
22040;SDS011;11184;52.444;13.578;2023-07-08T03:59:40;7.85;;;5.47;;
22040;SDS011;11184;52.444;13.578;2023-07-08T04:02:25;7.35;;;5.95;;
22040;SDS011;11184;52.444;13.578;2023-07-08T04:05:12;5.38;;;4.88;;
22040;SDS011;11184;52.444;13.578;2023-07-08T04:07:58;9.75;;;5.60;;
22040;SDS011;11184;52.444;13.578;2023-07-08T04:10:43;6.38;;;5.63;;
22040;SDS011;11184;52.444;13.578;2023-07-08T04:13:27;6.85;;;4.57;;
22040;SDS011;11184;52.444;13.578;2023-07-08T04:16:16;5.35;;;4.20;;
22040;SDS011;11184;52.444;13.578;2023-07-08T04:19:01;5.47;;;4.97;;
22040;SDS011;11184;52.444;13.578;2023-07-08T04:21:46;5.63;;;4.72;;
22040;SDS011;11184;52.444;13.578;2023-07-08T04:24:31;6.53;;;5.38;;
22040;SDS011;11184;52.444;13.578;2023-07-08T04:27:17;4.88;;;4.45;;
22040;SDS011;11184;52.444;13.578;2023-07-08T04:30:02;4.32;;;3.92;;
22040;SDS011;11184;52.444;13.578;2023-07-08T04:32:49;10.00;;;5.45;;
22040;SDS011;11184;52.444;13.578;2023-07-08T04:35:34;6.47;;;5.15;;
22040;SDS011;11184;52.444;13.578;2023-07-08T04:38:21;6.80;;;5.00;;
22040;SDS011;11184;52.444;13.578;2023-07-08T04:41:06;6.70;;;5.13;;
22040;SDS011;11184;52.444;13.578;2023-07-08T04:43:50;4.47;;;4.07;;
22040;SDS011;11184;52.444;13.578;2023-07-08T04:46:37;4.78;;;4.38;;
22040;SDS011;11184;52.444;13.578;2023-07-08T04:49:23;5.40;;;5.00;;
22040;SDS011;11184;52.444;13.578;2023-07-08T04:52:15;5.80;;;4.93;;
22040;SDS011;11184;52.444;13.578;2023-07-08T04:54:59;11.32;;;5.80;;
22040;SDS011;11184;52.444;13.578;2023-07-08T04:57:44;6.03;;;5.22;;
22040;SDS011;11184;52.444;13.578;2023-07-08T05:00:29;4.63;;;4.22;;
22040;SDS011;11184;52.444;13.578;2023-07-08T05:03:13;5.72;;;5.22;;
22040;SDS011;11184;52.444;13.578;2023-07-08T05:05:58;4.45;;;4.05;;
22040;SDS011;11184;52.444;13.578;2023-07-08T05:08:43;4.50;;;4.20;;
22040;SDS011;11184;52.444;13.578;2023-07-08T05:11:28;4.97;;;4.55;;
22040;SDS011;11184;52.444;13.578;2023-07-08T05:14:13;4.18;;;3.78;;
22040;SDS011;11184;52.444;13.578;2023-07-08T05:16:57;5.18;;;3.22;;
22040;SDS011;11184;52.444;13.578;2023-07-08T05:19:42;4.40;;;4.00;;
22040;SDS011;11184;52.444;13.578;2023-07-08T05:22:28;5.63;;;4.47;;
22040;SDS011;11184;52.444;13.578;2023-07-08T05:25:14;5.10;;;4.60;;
22040;SDS011;11184;52.444;13.578;2023-07-08T05:27:58;4.25;;;3.85;;
22040;SDS011;11184;52.444;13.578;2023-07-08T05:30:43;4.22;;;3.85;;
22040;SDS011;11184;52.444;13.578;2023-07-08T05:33:29;4.93;;;4.53;;
22040;SDS011;11184;52.444;13.578;2023-07-08T05:36:14;4.10;;;3.80;;
22040;SDS011;11184;52.444;13.578;2023-07-08T05:38:59;4.13;;;3.72;;
22040;SDS011;11184;52.444;13.578;2023-07-08T05:41:44;4.75;;;4.05;;
22040;SDS011;11184;52.444;13.578;2023-07-08T05:44:28;5.53;;;4.65;;
22040;SDS011;11184;52.444;13.578;2023-07-08T05:47:14;5.55;;;3.80;;
22040;SDS011;11184;52.444;13.578;2023-07-08T05:49:59;6.03;;;4.53;;
22040;SDS011;11184;52.444;13.578;2023-07-08T05:52:43;4.53;;;3.78;;
22040;SDS011;11184;52.444;13.578;2023-07-08T05:55:28;5.22;;;4.35;;
22040;SDS011;11184;52.444;13.578;2023-07-08T05:58:13;3.80;;;3.40;;
22040;SDS011;11184;52.444;13.578;2023-07-08T06:01:00;11.77;;;5.70;;
22040;SDS011;11184;52.444;13.578;2023-07-08T06:03:45;6.20;;;5.05;;
22040;SDS011;11184;52.444;13.578;2023-07-08T06:06:30;7.55;;;5.40;;
22040;SDS011;11184;52.444;13.578;2023-07-08T06:09:14;4.47;;;4.07;;
22040;SDS011;11184;52.444;13.578;2023-07-08T06:11:59;5.43;;;4.70;;
22040;SDS011;11184;52.444;13.578;2023-07-08T06:14:43;5.13;;;4.47;;
22040;SDS011;11184;52.444;13.578;2023-07-08T06:17:28;5.75;;;4.15;;
22040;SDS011;11184;52.444;13.578;2023-07-08T06:20:13;5.15;;;4.65;;
22040;SDS011;11184;52.444;13.578;2023-07-08T06:22:58;5.05;;;4.65;;
22040;SDS011;11184;52.444;13.578;2023-07-08T06:25:42;4.97;;;4.47;;
22040;SDS011;11184;52.444;13.578;2023-07-08T06:28:27;4.32;;;3.65;;
22040;SDS011;11184;52.444;13.578;2023-07-08T06:31:11;4.93;;;4.10;;
22040;SDS011;11184;52.444;13.578;2023-07-08T06:33:56;4.50;;;4.10;;
22040;SDS011;11184;52.444;13.578;2023-07-08T06:36:41;5.65;;;4.60;;
22040;SDS011;11184;52.444;13.578;2023-07-08T06:39:25;5.32;;;4.55;;
22040;SDS011;11184;52.444;13.578;2023-07-08T06:42:10;9.35;;;4.22;;
22040;SDS011;11184;52.444;13.578;2023-07-08T06:44:54;5.15;;;4.75;;
22040;SDS011;11184;52.444;13.578;2023-07-08T06:47:39;5.68;;;4.28;;
22040;SDS011;11184;52.444;13.578;2023-07-08T06:50:24;4.70;;;4.05;;
22040;SDS011;11184;52.444;13.578;2023-07-08T06:53:09;5.00;;;4.50;;
22040;SDS011;11184;52.444;13.578;2023-07-08T06:55:53;7.75;;;4.28;;
22040;SDS011;11184;52.444;13.578;2023-07-08T06:58:38;4.03;;;3.63;;
22040;SDS011;11184;52.444;13.578;2023-07-08T07:01:22;3.30;;;3.00;;
22040;SDS011;11184;52.444;13.578;2023-07-08T07:04:07;3.85;;;3.55;;
22040;SDS011;11184;52.444;13.578;2023-07-08T07:06:52;3.88;;;3.47;;
22040;SDS011;11184;52.444;13.578;2023-07-08T07:09:36;8.07;;;4.00;;
22040;SDS011;11184;52.444;13.578;2023-07-08T07:12:21;4.78;;;3.85;;
22040;SDS011;11184;52.444;13.578;2023-07-08T07:15:06;3.75;;;3.40;;
22040;SDS011;11184;52.444;13.578;2023-07-08T07:17:51;3.53;;;3.20;;
22040;SDS011;11184;52.444;13.578;2023-07-08T07:20:36;4.05;;;3.75;;
22040;SDS011;11184;52.444;13.578;2023-07-08T07:23:21;2.92;;;2.65;;
22040;SDS011;11184;52.444;13.578;2023-07-08T07:26:06;6.63;;;3.95;;
22040;SDS011;11184;52.444;13.578;2023-07-08T07:28:51;3.75;;;3.30;;
22040;SDS011;11184;52.444;13.578;2023-07-08T07:31:36;6.95;;;4.60;;
22040;SDS011;11184;52.444;13.578;2023-07-08T07:34:23;5.93;;;4.40;;
22040;SDS011;11184;52.444;13.578;2023-07-08T07:37:11;4.20;;;3.80;;
22040;SDS011;11184;52.444;13.578;2023-07-08T07:39:56;3.70;;;3.33;;
22040;SDS011;11184;52.444;13.578;2023-07-08T07:42:41;4.85;;;4.40;;
22040;SDS011;11184;52.444;13.578;2023-07-08T07:45:27;4.75;;;3.42;;
22040;SDS011;11184;52.444;13.578;2023-07-08T07:48:11;4.82;;;3.47;;
22040;SDS011;11184;52.444;13.578;2023-07-08T07:50:56;8.23;;;3.35;;
22040;SDS011;11184;52.444;13.578;2023-07-08T07:53:41;7.20;;;4.07;;
22040;SDS011;11184;52.444;13.578;2023-07-08T07:56:25;3.40;;;2.50;;
22040;SDS011;11184;52.444;13.578;2023-07-08T07:59:10;4.57;;;3.13;;
22040;SDS011;11184;52.444;13.578;2023-07-08T08:01:55;5.00;;;3.53;;
22040;SDS011;11184;52.444;13.578;2023-07-08T08:04:40;4.93;;;3.63;;
22040;SDS011;11184;52.444;13.578;2023-07-08T08:07:25;3.45;;;2.88;;
22040;SDS011;11184;52.444;13.578;2023-07-08T08:10:09;6.55;;;3.60;;
22040;SDS011;11184;52.444;13.578;2023-07-08T08:12:54;3.83;;;2.70;;
22040;SDS011;11184;52.444;13.578;2023-07-08T08:15:38;11.02;;;3.70;;
22040;SDS011;11184;52.444;13.578;2023-07-08T08:18:24;3.95;;;3.13;;
22040;SDS011;11184;52.444;13.578;2023-07-08T08:21:08;3.00;;;2.67;;
22040;SDS011;11184;52.444;13.578;2023-07-08T08:23:53;3.95;;;3.42;;
22040;SDS011;11184;52.444;13.578;2023-07-08T08:26:37;2.85;;;2.55;;
22040;SDS011;11184;52.444;13.578;2023-07-08T08:29:22;4.20;;;3.33;;
22040;SDS011;11184;52.444;13.578;2023-07-08T08:32:07;9.07;;;2.67;;
22040;SDS011;11184;52.444;13.578;2023-07-08T08:34:52;3.88;;;2.65;;
22040;SDS011;11184;52.444;13.578;2023-07-08T08:37:36;2.38;;;2.17;;
22040;SDS011;11184;52.444;13.578;2023-07-08T08:40:21;4.57;;;2.90;;
22040;SDS011;11184;52.444;13.578;2023-07-08T08:43:10;7.13;;;2.83;;
22040;SDS011;11184;52.444;13.578;2023-07-08T08:48:43;5.22;;;4.32;;
22040;SDS011;11184;52.444;13.578;2023-07-08T08:51:31;2.83;;;2.53;;
22040;SDS011;11184;52.444;13.578;2023-07-08T08:54:16;4.53;;;2.47;;
22040;SDS011;11184;52.444;13.578;2023-07-08T08:59:49;4.72;;;2.47;;
22040;SDS011;11184;52.444;13.578;2023-07-08T09:02:38;8.65;;;2.75;;
22040;SDS011;11184;52.444;13.578;2023-07-08T09:05:25;3.53;;;2.75;;
22040;SDS011;11184;52.444;13.578;2023-07-08T09:08:18;3.10;;;2.10;;
22040;SDS011;11184;52.444;13.578;2023-07-08T09:14:16;3.13;;;1.48;;
22040;SDS011;11184;52.444;13.578;2023-07-08T09:17:13;3.28;;;1.85;;
22040;SDS011;11184;52.444;13.578;2023-07-08T09:20:20;3.50;;;2.63;;
22040;SDS011;11184;52.444;13.578;2023-07-08T09:23:22;3.03;;;1.67;;
22040;SDS011;11184;52.444;13.578;2023-07-08T09:26:11;2.78;;;2.00;;
22040;SDS011;11184;52.444;13.578;2023-07-08T09:28:58;1.75;;;1.65;;
22040;SDS011;11184;52.444;13.578;2023-07-08T09:31:42;3.55;;;1.98;;
22040;SDS011;11184;52.444;13.578;2023-07-08T09:34:36;2.50;;;1.73;;
22040;SDS011;11184;52.444;13.578;2023-07-08T09:37:22;4.47;;;1.90;;
22040;SDS011;11184;52.444;13.578;2023-07-08T09:40:15;3.22;;;2.17;;
22040;SDS011;11184;52.444;13.578;2023-07-08T09:43:03;4.10;;;1.88;;
22040;SDS011;11184;52.444;13.578;2023-07-08T09:45:50;2.88;;;1.98;;
22040;SDS011;11184;52.444;13.578;2023-07-08T09:48:35;4.03;;;1.88;;
22040;SDS011;11184;52.444;13.578;2023-07-08T09:51:20;3.47;;;2.03;;
22040;SDS011;11184;52.444;13.578;2023-07-08T09:54:05;2.10;;;1.70;;
22040;SDS011;11184;52.444;13.578;2023-07-08T09:56:58;2.85;;;2.05;;
22040;SDS011;11184;52.444;13.578;2023-07-08T09:59:45;5.15;;;3.95;;
22040;SDS011;11184;52.444;13.578;2023-07-08T10:02:32;4.30;;;1.95;;
22040;SDS011;11184;52.444;13.578;2023-07-08T10:05:18;5.45;;;2.00;;
22040;SDS011;11184;52.444;13.578;2023-07-08T10:08:10;2.55;;;1.77;;
22040;SDS011;11184;52.444;13.578;2023-07-08T10:14:04;2.85;;;1.70;;
22040;SDS011;11184;52.444;13.578;2023-07-08T10:16:51;1.98;;;1.48;;
22040;SDS011;11184;52.444;13.578;2023-07-08T10:19:36;2.25;;;1.48;;
22040;SDS011;11184;52.444;13.578;2023-07-08T10:22:36;3.65;;;1.38;;
22040;SDS011;11184;52.444;13.578;2023-07-08T10:25:39;1.70;;;1.55;;
22040;SDS011;11184;52.444;13.578;2023-07-08T10:28:35;2.20;;;1.88;;
22040;SDS011;11184;52.444;13.578;2023-07-08T10:31:35;2.15;;;1.85;;
22040;SDS011;11184;52.444;13.578;2023-07-08T10:34:33;2.35;;;1.60;;
22040;SDS011;11184;52.444;13.578;2023-07-08T10:43:15;3.55;;;2.35;;
22040;SDS011;11184;52.444;13.578;2023-07-08T10:46:09;2.95;;;1.50;;
22040;SDS011;11184;52.444;13.578;2023-07-08T10:52:05;3.58;;;2.08;;
22040;SDS011;11184;52.444;13.578;2023-07-08T11:00:39;2.45;;;1.45;;
22040;SDS011;11184;52.444;13.578;2023-07-08T11:06:34;2.50;;;1.80;;
22040;SDS011;11184;52.444;13.578;2023-07-08T11:09:27;2.63;;;1.88;;
22040;SDS011;11184;52.444;13.578;2023-07-08T11:15:18;3.45;;;2.28;;
22040;SDS011;11184;52.444;13.578;2023-07-08T11:18:07;1.75;;;1.40;;
22040;SDS011;11184;52.444;13.578;2023-07-08T11:21:00;11.40;;;2.28;;
22040;SDS011;11184;52.444;13.578;2023-07-08T11:24:04;2.17;;;1.65;;
22040;SDS011;11184;52.444;13.578;2023-07-08T11:26:53;4.35;;;1.88;;
22040;SDS011;11184;52.444;13.578;2023-07-08T11:29:42;5.63;;;2.25;;
22040;SDS011;11184;52.444;13.578;2023-07-08T11:32:30;3.22;;;1.33;;
22040;SDS011;11184;52.444;13.578;2023-07-08T11:35:23;2.38;;;1.48;;
22040;SDS011;11184;52.444;13.578;2023-07-08T11:38:13;1.65;;;1.08;;
22040;SDS011;11184;52.444;13.578;2023-07-08T11:41:00;2.35;;;1.58;;
22040;SDS011;11184;52.444;13.578;2023-07-08T11:43:53;4.07;;;2.05;;
22040;SDS011;11184;52.444;13.578;2023-07-08T11:46:48;3.38;;;1.73;;
22040;SDS011;11184;52.444;13.578;2023-07-08T11:49:37;3.80;;;1.85;;
22040;SDS011;11184;52.444;13.578;2023-07-08T11:52:22;4.05;;;1.80;;
22040;SDS011;11184;52.444;13.578;2023-07-08T11:55:22;2.20;;;1.58;;
22040;SDS011;11184;52.444;13.578;2023-07-08T11:58:25;4.15;;;2.10;;
22040;SDS011;11184;52.444;13.578;2023-07-08T12:13:11;2.88;;;1.92;;
22040;SDS011;11184;52.444;13.578;2023-07-08T12:15:56;10.32;;;2.08;;
22040;SDS011;11184;52.444;13.578;2023-07-08T12:18:42;3.25;;;2.08;;
22040;SDS011;11184;52.444;13.578;2023-07-08T12:21:29;3.15;;;2.20;;
22040;SDS011;11184;52.444;13.578;2023-07-08T12:24:14;2.40;;;2.13;;
22040;SDS011;11184;52.444;13.578;2023-07-08T12:26:59;3.95;;;2.28;;
22040;SDS011;11184;52.444;13.578;2023-07-08T12:29:43;3.65;;;2.35;;
22040;SDS011;11184;52.444;13.578;2023-07-08T12:32:28;3.65;;;2.17;;
22040;SDS011;11184;52.444;13.578;2023-07-08T12:35:17;3.25;;;2.28;;
22040;SDS011;11184;52.444;13.578;2023-07-08T12:38:21;4.57;;;2.45;;
22040;SDS011;11184;52.444;13.578;2023-07-08T12:41:12;2.50;;;2.30;;
22040;SDS011;11184;52.444;13.578;2023-07-08T12:43:57;2.53;;;1.73;;
22040;SDS011;11184;52.444;13.578;2023-07-08T12:46:43;3.90;;;2.80;;
22040;SDS011;11184;52.444;13.578;2023-07-08T12:49:27;3.60;;;2.70;;
22040;SDS011;11184;52.444;13.578;2023-07-08T12:52:23;2.30;;;2.05;;
22040;SDS011;11184;52.444;13.578;2023-07-08T12:55:08;2.47;;;1.70;;
22040;SDS011;11184;52.444;13.578;2023-07-08T12:57:54;3.75;;;1.77;;
22040;SDS011;11184;52.444;13.578;2023-07-08T13:00:39;3.60;;;2.08;;
22040;SDS011;11184;52.444;13.578;2023-07-08T13:03:26;1.98;;;1.77;;
22040;SDS011;11184;52.444;13.578;2023-07-08T13:06:11;5.55;;;1.88;;
22040;SDS011;11184;52.444;13.578;2023-07-08T13:08:57;2.55;;;2.20;;
22040;SDS011;11184;52.444;13.578;2023-07-08T13:11:46;2.75;;;2.50;;
22040;SDS011;11184;52.444;13.578;2023-07-08T13:14:30;4.10;;;2.38;;
22040;SDS011;11184;52.444;13.578;2023-07-08T13:17:15;3.17;;;2.22;;
22040;SDS011;11184;52.444;13.578;2023-07-08T13:20:00;2.25;;;1.85;;
22040;SDS011;11184;52.444;13.578;2023-07-08T13:22:46;3.15;;;2.25;;
22040;SDS011;11184;52.444;13.578;2023-07-08T13:25:32;7.68;;;2.50;;
22040;SDS011;11184;52.444;13.578;2023-07-08T13:28:18;3.00;;;2.05;;
22040;SDS011;11184;52.444;13.578;2023-07-08T13:31:17;3.95;;;2.17;;
22040;SDS011;11184;52.444;13.578;2023-07-08T13:34:07;2.28;;;1.95;;
22040;SDS011;11184;52.444;13.578;2023-07-08T13:36:53;2.25;;;1.67;;
22040;SDS011;11184;52.444;13.578;2023-07-08T13:39:38;1.90;;;1.55;;
22040;SDS011;11184;52.444;13.578;2023-07-08T13:42:23;5.70;;;2.35;;
22040;SDS011;11184;52.444;13.578;2023-07-08T13:45:13;3.70;;;2.08;;
22040;SDS011;11184;52.444;13.578;2023-07-08T13:48:02;4.28;;;1.95;;
22040;SDS011;11184;52.444;13.578;2023-07-08T13:53:56;3.38;;;2.20;;
22040;SDS011;11184;52.444;13.578;2023-07-08T13:56:41;3.28;;;2.30;;
22040;SDS011;11184;52.444;13.578;2023-07-08T13:59:26;6.13;;;2.20;;
22040;SDS011;11184;52.444;13.578;2023-07-08T14:02:17;3.58;;;2.05;;
22040;SDS011;11184;52.444;13.578;2023-07-08T14:05:04;3.08;;;2.05;;
22040;SDS011;11184;52.444;13.578;2023-07-08T14:07:50;3.80;;;2.30;;
22040;SDS011;11184;52.444;13.578;2023-07-08T14:10:34;3.72;;;2.88;;
22040;SDS011;11184;52.444;13.578;2023-07-08T14:13:19;3.10;;;1.75;;
22040;SDS011;11184;52.444;13.578;2023-07-08T14:16:08;4.20;;;3.13;;
22040;SDS011;11184;52.444;13.578;2023-07-08T14:18:54;3.47;;;2.55;;
22040;SDS011;11184;52.444;13.578;2023-07-08T14:21:39;6.90;;;2.63;;
22040;SDS011;11184;52.444;13.578;2023-07-08T14:24:24;2.70;;;2.40;;
22040;SDS011;11184;52.444;13.578;2023-07-08T14:27:09;2.85;;;2.55;;
22040;SDS011;11184;52.444;13.578;2023-07-08T14:29:56;6.72;;;2.45;;
22040;SDS011;11184;52.444;13.578;2023-07-08T14:32:40;4.43;;;3.38;;
22040;SDS011;11184;52.444;13.578;2023-07-08T14:35:26;2.33;;;2.13;;
22040;SDS011;11184;52.444;13.578;2023-07-08T14:38:12;3.58;;;3.03;;
22040;SDS011;11184;52.444;13.578;2023-07-08T14:40:57;4.22;;;2.67;;
22040;SDS011;11184;52.444;13.578;2023-07-08T14:43:41;4.32;;;2.40;;
22040;SDS011;11184;52.444;13.578;2023-07-08T14:46:27;5.32;;;2.85;;
22040;SDS011;11184;52.444;13.578;2023-07-08T14:49:14;3.17;;;2.25;;
22040;SDS011;11184;52.444;13.578;2023-07-08T14:51:59;2.50;;;2.13;;
22040;SDS011;11184;52.444;13.578;2023-07-08T14:54:44;3.55;;;1.83;;
22040;SDS011;11184;52.444;13.578;2023-07-08T14:57:30;4.68;;;2.35;;
22040;SDS011;11184;52.444;13.578;2023-07-08T15:00:17;7.18;;;2.92;;
22040;SDS011;11184;52.444;13.578;2023-07-08T15:03:02;2.83;;;2.15;;
22040;SDS011;11184;52.444;13.578;2023-07-08T15:05:46;2.42;;;2.08;;
22040;SDS011;11184;52.444;13.578;2023-07-08T15:08:31;3.03;;;2.17;;
22040;SDS011;11184;52.444;13.578;2023-07-08T15:11:26;3.55;;;2.97;;
22040;SDS011;11184;52.444;13.578;2023-07-08T15:16:58;4.63;;;2.20;;
22040;SDS011;11184;52.444;13.578;2023-07-08T15:19:43;3.03;;;1.90;;
22040;SDS011;11184;52.444;13.578;2023-07-08T15:22:28;2.53;;;2.15;;
22040;SDS011;11184;52.444;13.578;2023-07-08T15:25:13;2.42;;;2.22;;
22040;SDS011;11184;52.444;13.578;2023-07-08T15:27:58;5.72;;;2.50;;
22040;SDS011;11184;52.444;13.578;2023-07-08T15:30:43;2.22;;;1.90;;
22040;SDS011;11184;52.444;13.578;2023-07-08T15:33:28;2.95;;;2.33;;
22040;SDS011;11184;52.444;13.578;2023-07-08T15:36:13;2.22;;;2.03;;
22040;SDS011;11184;52.444;13.578;2023-07-08T15:38:58;2.92;;;2.35;;
22040;SDS011;11184;52.444;13.578;2023-07-08T15:41:43;3.63;;;2.67;;
22040;SDS011;11184;52.444;13.578;2023-07-08T15:44:27;4.03;;;2.28;;
22040;SDS011;11184;52.444;13.578;2023-07-08T15:47:12;3.20;;;2.00;;
22040;SDS011;11184;52.444;13.578;2023-07-08T15:49:57;2.97;;;2.45;;
22040;SDS011;11184;52.444;13.578;2023-07-08T15:52:42;6.82;;;1.83;;
22040;SDS011;11184;52.444;13.578;2023-07-08T15:55:29;4.10;;;2.00;;
22040;SDS011;11184;52.444;13.578;2023-07-08T15:58:25;2.35;;;1.48;;
22040;SDS011;11184;52.444;13.578;2023-07-08T16:01:18;3.22;;;2.25;;
22040;SDS011;11184;52.444;13.578;2023-07-08T16:04:04;2.70;;;2.22;;
22040;SDS011;11184;52.444;13.578;2023-07-08T16:06:49;2.97;;;2.20;;
22040;SDS011;11184;52.444;13.578;2023-07-08T16:09:34;2.63;;;2.25;;
22040;SDS011;11184;52.444;13.578;2023-07-08T16:12:19;2.78;;;2.03;;
22040;SDS011;11184;52.444;13.578;2023-07-08T16:15:05;2.85;;;1.77;;
22040;SDS011;11184;52.444;13.578;2023-07-08T16:17:50;4.80;;;1.77;;
22040;SDS011;11184;52.444;13.578;2023-07-08T16:20:34;2.03;;;1.67;;
22040;SDS011;11184;52.444;13.578;2023-07-08T16:23:19;3.20;;;1.77;;
22040;SDS011;11184;52.444;13.578;2023-07-08T16:26:04;3.30;;;1.95;;
22040;SDS011;11184;52.444;13.578;2023-07-08T16:28:49;2.08;;;1.75;;
22040;SDS011;11184;52.444;13.578;2023-07-08T16:31:34;3.63;;;2.25;;
22040;SDS011;11184;52.444;13.578;2023-07-08T16:34:18;4.95;;;2.13;;
22040;SDS011;11184;52.444;13.578;2023-07-08T16:37:03;4.10;;;2.20;;
22040;SDS011;11184;52.444;13.578;2023-07-08T16:39:48;8.00;;;2.17;;
22040;SDS011;11184;52.444;13.578;2023-07-08T16:42:34;2.97;;;2.22;;
22040;SDS011;11184;52.444;13.578;2023-07-08T16:45:20;2.47;;;2.00;;
22040;SDS011;11184;52.444;13.578;2023-07-08T16:48:05;2.45;;;1.95;;
22040;SDS011;11184;52.444;13.578;2023-07-08T16:50:49;3.25;;;1.80;;
22040;SDS011;11184;52.444;13.578;2023-07-08T16:53:34;5.25;;;1.80;;
22040;SDS011;11184;52.444;13.578;2023-07-08T16:56:19;6.63;;;2.00;;
22040;SDS011;11184;52.444;13.578;2023-07-08T16:59:04;3.00;;;2.63;;
22040;SDS011;11184;52.444;13.578;2023-07-08T17:01:48;2.58;;;1.80;;
22040;SDS011;11184;52.444;13.578;2023-07-08T17:04:35;2.15;;;1.90;;
22040;SDS011;11184;52.444;13.578;2023-07-08T17:07:20;3.92;;;2.50;;
22040;SDS011;11184;52.444;13.578;2023-07-08T17:10:05;3.17;;;1.42;;
22040;SDS011;11184;52.444;13.578;2023-07-08T17:12:49;1.70;;;1.40;;
22040;SDS011;11184;52.444;13.578;2023-07-08T17:15:34;2.10;;;1.67;;
22040;SDS011;11184;52.444;13.578;2023-07-08T17:18:20;2.33;;;2.00;;
22040;SDS011;11184;52.444;13.578;2023-07-08T17:21:04;2.67;;;1.85;;
22040;SDS011;11184;52.444;13.578;2023-07-08T17:23:53;2.05;;;1.90;;